Time;durP1;ratioP1;P1;durP2;ratioP2;P2;SDS_P1;SDS_P2;PMS_P1;PMS_P2;Temp;Humidity;BMP_temperature;BMP_pressure;BME280_temperature;BME280_humidity;BME280_pressure;Samples;Min_cycle;Max_cycle;Signal;HPM_P1;HPM_P2
2023/11/06 00:00:42;;;;;;;1.00;0.63;;;;;;;;;;5886995;28;20064;-74
2023/11/06 00:03:33;;;;;;;1.00;0.77;;;;;;;;;;5886932;28;20044;-73
2023/11/06 00:06:24;;;;;;;1.80;0.65;;;;;;;;;;5887035;28;20047;-74
2023/11/06 00:09:14;;;;;;;2.65;1.25;;;;;;;;;;5886769;28;20045;-73
2023/11/06 00:12:06;;;;;;;0.20;0.20;;;;;;;;;;5886718;28;20048;-73
2023/11/06 00:14:57;;;;;;;3.50;0.93;;;;;;;;;;5885927;28;20442;-75
2023/11/06 00:17:48;;;;;;;0.45;0.45;;;;;;;;;;5885864;28;20049;-74
2023/11/06 00:20:38;;;;;;;2.25;0.80;;;;;;;;;;5886792;28;20045;-75
2023/11/06 00:23:29;;;;;;;2.72;0.82;;;;;;;;;;5886584;28;20048;-74
2023/11/06 00:26:20;;;;;;;1.10;0.55;;;;;;;;;;5885457;28;20513;-74
2023/11/06 00:29:11;;;;;;;0.68;0.50;;;;;;;;;;5886411;28;20045;-75
2023/11/06 00:32:03;;;;;;;0.47;0.47;;;;;;;;;;5886470;28;20076;-75
2023/11/06 00:34:54;;;;;;;0.20;0.20;;;;;;;;;;5886649;28;20136;-74
2023/11/06 00:37:44;;;;;;;0.40;0.40;;;;;;;;;;5886350;28;20399;-74
2023/11/06 00:40:35;;;;;;;3.13;0.50;;;;;;;;;;5886370;28;20052;-75
2023/11/06 00:43:26;;;;;;;2.08;0.80;;;;;;;;;;5886000;28;20063;-74
2023/11/06 00:46:16;;;;;;;0.40;0.40;;;;;;;;;;5886082;28;20075;-73
2023/11/06 00:49:08;;;;;;;1.38;0.70;;;;;;;;;;5886062;28;20067;-75
2023/11/06 00:51:59;;;;;;;0.50;0.50;;;;;;;;;;5886484;28;20136;-75
2023/11/06 00:54:50;;;;;;;0.35;0.35;;;;;;;;;;5886149;28;20052;-76
2023/11/06 00:57:41;;;;;;;1.05;0.98;;;;;;;;;;5885836;28;20052;-76
2023/11/06 01:00:32;;;;;;;0.77;0.70;;;;;;;;;;5885991;28;20048;-76
2023/11/06 01:03:23;;;;;;;7.38;1.05;;;;;;;;;;5906126;28;20056;-76
2023/11/06 01:06:14;;;;;;;0.60;0.60;;;;;;;;;;5909143;28;20052;-77
2023/11/06 01:09:07;;;;;;;0.52;0.38;;;;;;;;;;5909239;28;20052;-75
2023/11/06 01:11:57;;;;;;;2.20;0.95;;;;;;;;;;5909788;28;20059;-74
2023/11/06 01:14:49;;;;;;;0.20;0.20;;;;;;;;;;5909105;28;20044;-76
2023/11/06 01:17:41;;;;;;;2.92;1.35;;;;;;;;;;5909362;28;20042;-76
2023/11/06 01:20:33;;;;;;;0.40;0.40;;;;;;;;;;5909344;28;20064;-76
2023/11/06 01:23:24;;;;;;;8.35;0.93;;;;;;;;;;5909192;28;20040;-76
2023/11/06 01:26:15;;;;;;;0.30;0.30;;;;;;;;;;5908881;28;20045;-75
2023/11/06 01:29:06;;;;;;;1.60;1.00;;;;;;;;;;5909960;28;20362;-75
2023/11/06 01:31:56;;;;;;;0.32;0.32;;;;;;;;;;5914241;28;20049;-75
2023/11/06 01:34:47;;;;;;;0.15;0.15;;;;;;;;;;5913626;28;20052;-73
2023/11/06 01:37:38;;;;;;;0.45;0.45;;;;;;;;;;5913416;28;20048;-76
2023/11/06 01:40:30;;;;;;;0.32;0.30;;;;;;;;;;5913533;28;20123;-76
2023/11/06 01:43:24;;;;;;;2.92;0.90;;;;;;;;;;5913438;28;20397;-76
2023/11/06 01:46:15;;;;;;;0.22;0.22;;;;;;;;;;5913342;28;20048;-75
2023/11/06 01:49:07;;;;;;;2.17;0.90;;;;;;;;;;5913307;28;20462;-74
2023/11/06 01:52:00;;;;;;;0.30;0.30;;;;;;;;;;5913746;28;20055;-75
2023/11/06 01:54:51;;;;;;;0.20;0.20;;;;;;;;;;5913381;28;20115;-75
2023/11/06 01:57:42;;;;;;;0.80;0.30;;;;;;;;;;5911763;28;20048;-75
2023/11/06 02:00:33;;;;;;;0.13;0.13;;;;;;;;;;5912990;28;20045;-75
2023/11/06 02:03:25;;;;;;;4.03;1.25;;;;;;;;;;5911766;28;20052;-75
2023/11/06 02:06:16;;;;;;;0.22;0.22;;;;;;;;;;5912968;28;20068;-76
2023/11/06 02:09:07;;;;;;;0.82;0.32;;;;;;;;;;5911462;28;20052;-75
2023/11/06 02:11:58;;;;;;;0.52;0.52;;;;;;;;;;5913495;28;20044;-75
2023/11/06 02:14:53;;;;;;;1.58;0.38;;;;;;;;;;5912726;28;20063;-76
2023/11/06 02:17:44;;;;;;;0.57;0.35;;;;;;;;;;5912701;28;20056;-75
2023/11/06 02:20:37;;;;;;;0.50;0.50;;;;;;;;;;5912651;28;20128;-76
2023/11/06 02:23:28;;;;;;;1.65;0.47;;;;;;;;;;5912537;28;20201;-75
2023/11/06 02:26:18;;;;;;;1.75;0.63;;;;;;;;;;5912342;28;20055;-76
2023/11/06 02:29:09;;;;;;;0.40;0.40;;;;;;;;;;5912353;28;20107;-77
2023/11/06 02:32:00;;;;;;;2.75;0.73;;;;;;;;;;5913001;28;20575;-76
2023/11/06 02:34:51;;;;;;;0.90;0.50;;;;;;;;;;5912322;28;20052;-76
2023/11/06 02:37:42;;;;;;;2.05;0.55;;;;;;;;;;5912280;28;20048;-76
2023/11/06 02:40:32;;;;;;;0.32;0.32;;;;;;;;;;5911357;28;20052;-76
2023/11/06 02:43:23;;;;;;;0.40;0.40;;;;;;;;;;5912096;28;20059;-76
2023/11/06 02:46:14;;;;;;;0.20;0.20;;;;;;;;;;5911943;28;20075;-76
2023/11/06 02:49:05;;;;;;;0.80;0.68;;;;;;;;;;5911704;28;20052;-75
2023/11/06 02:51:55;;;;;;;0.32;0.30;;;;;;;;;;5912516;28;20048;-76
2023/11/06 02:54:46;;;;;;;0.70;0.40;;;;;;;;;;5911980;28;20418;-75
2023/11/06 02:57:37;;;;;;;0.30;0.30;;;;;;;;;;5911633;28;20422;-76
2023/11/06 03:00:27;;;;;;;0.30;0.15;;;;;;;;;;5911705;28;20082;-76
2023/11/06 03:03:20;;;;;;;0.10;0.10;;;;;;;;;;5911635;28;20051;-74
2023/11/06 03:06:13;;;;;;;0.32;0.32;;;;;;;;;;5911803;28;20072;-76
2023/11/06 03:09:06;;;;;;;0.10;0.10;;;;;;;;;;5911722;28;20049;-75
2023/11/06 03:11:56;;;;;;;0.17;0.17;;;;;;;;;;5911975;28;20056;-75
2023/11/06 03:14:47;;;;;;;0.35;0.32;;;;;;;;;;5911512;28;20582;-74
2023/11/06 03:17:38;;;;;;;0.20;0.20;;;;;;;;;;5911179;28;20047;-75
2023/11/06 03:20:29;;;;;;;0.10;0.10;;;;;;;;;;5911213;28;20414;-75
2023/11/06 03:23:19;;;;;;;0.40;0.40;;;;;;;;;;5911291;28;20482;-75
2023/11/06 03:26:10;;;;;;;0.85;0.47;;;;;;;;;;5910940;28;20086;-76
2023/11/06 03:29:02;;;;;;;0.43;0.40;;;;;;;;;;5911241;28;20052;-73
2023/11/06 03:31:54;;;;;;;0.38;0.32;;;;;;;;;;5911491;28;20067;-76
2023/11/06 03:34:44;;;;;;;0.17;0.17;;;;;;;;;;5910815;28;20407;-75
2023/11/06 03:37:35;;;;;;;0.10;0.10;;;;;;;;;;5910807;28;20045;-75
2023/11/06 03:40:26;;;;;;;2.10;0.25;;;;;;;;;;5911046;28;20040;-77
2023/11/06 03:43:17;;;;;;;0.32;0.32;;;;;;;;;;5910742;28;20051;-75
2023/11/06 03:46:08;;;;;;;1.05;0.85;;;;;;;;;;5910901;28;20049;-74
2023/11/06 03:48:59;;;;;;;1.50;0.82;;;;;;;;;;5910904;28;20053;-76
2023/11/06 03:51:50;;;;;;;0.43;0.22;;;;;;;;;;5910922;28;20044;-76
2023/11/06 03:54:42;;;;;;;1.65;0.30;;;;;;;;;;5910351;28;20056;-76
2023/11/06 03:57:32;;;;;;;0.45;0.45;;;;;;;;;;5910269;28;20119;-74
2023/11/06 04:00:23;;;;;;;0.95;0.43;;;;;;;;;;5910194;28;20052;-75
2023/11/06 04:03:14;;;;;;;0.35;0.35;;;;;;;;;;5910264;28;20063;-76
2023/11/06 04:06:05;;;;;;;0.20;0.20;;;;;;;;;;5908480;28;20625;-78
2023/11/06 04:08:57;;;;;;;0.25;0.25;;;;;;;;;;5910146;28;20048;-74
2023/11/06 04:11:48;;;;;;;0.22;0.22;;;;;;;;;;5910172;28;20044;-76
2023/11/06 04:14:39;;;;;;;0.50;0.50;;;;;;;;;;5909973;28;20103;-76
2023/11/06 04:17:30;;;;;;;0.20;0.20;;;;;;;;;;5910120;28;20516;-76
2023/11/06 04:20:21;;;;;;;0.77;0.40;;;;;;;;;;5909864;28;20498;-74
2023/11/06 04:23:12;;;;;;;0.03;0.03;;;;;;;;;;5908345;28;20083;-74
2023/11/06 04:26:04;;;;;;;0.10;0.10;;;;;;;;;;5910182;28;20076;-75
2023/11/06 04:28:55;;;;;;;3.60;0.40;;;;;;;;;;5910324;28;20198;-74
2023/11/06 04:31:46;;;;;;;0.17;0.17;;;;;;;;;;5909836;28;20399;-75
2023/11/06 04:34:37;;;;;;;0.32;0.20;;;;;;;;;;5909770;28;20055;-76
2023/11/06 04:37:27;;;;;;;0.20;0.20;;;;;;;;;;5909716;28;20059;-75
2023/11/06 04:40:19;;;;;;;0.10;0.10;;;;;;;;;;5909613;28;20048;-75
2023/11/06 04:43:10;;;;;;;0.10;0.10;;;;;;;;;;5909460;28;20045;-74
2023/11/06 04:46:01;;;;;;;0.43;0.20;;;;;;;;;;5909865;28;20056;-75
2023/11/06 04:48:52;;;;;;;0.28;0.28;;;;;;;;;;5909978;28;20052;-77
2023/11/06 04:51:42;;;;;;;0.10;0.10;;;;;;;;;;5909594;28;20185;-73
2023/11/06 04:54:33;;;;;;;0.10;0.10;;;;;;;;;;5909373;28;20462;-75
2023/11/06 04:57:24;;;;;;;0.60;0.28;;;;;;;;;;5909521;28;20044;-74
2023/11/06 05:00:16;;;;;;;0.22;0.22;;;;;;;;;;5909301;28;20059;-75
2023/11/06 05:03:07;;;;;;;0.20;0.20;;;;;;;;;;5909282;28;20048;-75
2023/11/06 05:05:57;;;;;;;0.10;0.10;;;;;;;;;;5909553;28;20078;-75
2023/11/06 05:08:48;;;;;;;0.10;0.10;;;;;;;;;;5909174;28;20132;-76
2023/11/06 05:11:39;;;;;;;0.30;0.30;;;;;;;;;;5909386;28;20052;-75
2023/11/06 05:14:30;;;;;;;0.10;0.10;;;;;;;;;;5909228;28;20048;-77
2023/11/06 05:17:21;;;;;;;0.25;0.20;;;;;;;;;;5909418;28;20057;-75
2023/11/06 05:20:14;;;;;;;1.42;0.98;;;;;;;;;;5908941;28;20056;-75
2023/11/06 05:23:05;;;;;;;0.45;0.45;;;;;;;;;;5909316;28;20056;-74
2023/11/06 05:25:55;;;;;;;1.25;0.43;;;;;;;;;;5909814;28;20431;-75
2023/11/06 05:28:46;;;;;;;4.30;0.50;;;;;;;;;;5908792;28;20182;-75
2023/11/06 05:31:37;;;;;;;0.45;0.45;;;;;;;;;;5909006;28;20420;-74
2023/11/06 05:34:28;;;;;;;0.10;0.10;;;;;;;;;;5907870;28;20064;-75
2023/11/06 05:37:19;;;;;;;0.75;0.52;;;;;;;;;;5908749;28;20049;-75
2023/11/06 05:40:10;;;;;;;0.45;0.40;;;;;;;;;;5908910;28;20065;-73
2023/11/06 05:43:01;;;;;;;0.43;0.32;;;;;;;;;;5908843;28;20417;-74
2023/11/06 05:45:52;;;;;;;0.10;0.10;;;;;;;;;;5909251;28;20052;-73
2023/11/06 05:48:43;;;;;;;0.38;0.15;;;;;;;;;;5908575;28;20048;-75
2023/11/06 05:51:34;;;;;;;0.80;0.55;;;;;;;;;;5909164;28;20049;-75
2023/11/06 05:54:24;;;;;;;0.13;0.13;;;;;;;;;;5908738;28;20051;-75
2023/11/06 05:57:15;;;;;;;0.30;0.30;;;;;;;;;;5908743;28;20048;-75
2023/11/06 06:00:11;;;;;;;0.45;0.45;;;;;;;;;;5908698;28;20053;-74
2023/11/06 06:03:01;;;;;;;0.30;0.22;;;;;;;;;;5908727;28;20044;-76
2023/11/06 06:05:53;;;;;;;0.20;0.20;;;;;;;;;;5909022;28;20049;-76
2023/11/06 06:08:43;;;;;;;0.80;0.57;;;;;;;;;;5908529;28;20040;-74
2023/11/06 06:11:37;;;;;;;1.65;0.77;;;;;;;;;;5908473;28;20048;-75
2023/11/06 06:14:28;;;;;;;1.90;0.85;;;;;;;;;;5908561;28;20048;-75
2023/11/06 06:17:19;;;;;;;0.30;0.30;;;;;;;;;;5911014;28;20071;-75
2023/11/06 06:20:14;;;;;;;3.25;0.82;;;;;;;;;;5912622;28;20094;-75
2023/11/06 06:23:05;;;;;;;1.52;0.70;;;;;;;;;;5912541;28;20179;-73
2023/11/06 06:25:55;;;;;;;0.40;0.40;;;;;;;;;;5912939;28;20052;-74
2023/11/06 06:28:46;;;;;;;2.17;0.57;;;;;;;;;;5912222;28;20074;-74
2023/11/06 06:31:37;;;;;;;0.30;0.30;;;;;;;;;;5912478;28;20494;-74
2023/11/06 06:34:28;;;;;;;0.55;0.38;;;;;;;;;;5912298;28;20091;-75
2023/11/06 06:37:19;;;;;;;0.60;0.60;;;;;;;;;;5912382;28;20051;-75
2023/11/06 06:40:10;;;;;;;0.60;0.32;;;;;;;;;;5912064;28;20139;-74
2023/11/06 06:43:01;;;;;;;0.57;0.52;;;;;;;;;;5912182;28;20067;-72
2023/11/06 06:45:52;;;;;;;0.95;0.80;;;;;;;;;;5912626;28;20105;-76
2023/11/06 06:48:44;;;;;;;0.70;0.70;;;;;;;;;;5911864;28;20049;-74
2023/11/06 06:51:35;;;;;;;1.40;0.68;;;;;;;;;;5911842;28;20070;-76
2023/11/06 06:54:26;;;;;;;0.28;0.28;;;;;;;;;;5912023;28;20055;-74
2023/11/06 06:57:17;;;;;;;1.40;0.88;;;;;;;;;;5911887;28;20044;-76
2023/11/06 07:00:08;;;;;;;0.55;0.55;;;;;;;;;;5911845;28;20060;-75
2023/11/06 07:03:00;;;;;;;0.20;0.20;;;;;;;;;;5912340;28;20045;-75
2023/11/06 07:05:52;;;;;;;6.60;0.80;;;;;;;;;;5911742;28;20131;-74
2023/11/06 07:08:43;;;;;;;2.20;1.05;;;;;;;;;;5911546;28;20071;-73
2023/11/06 07:11:34;;;;;;;1.40;0.65;;;;;;;;;;5911806;28;20063;-74
2023/11/06 07:14:25;;;;;;;1.88;1.30;;;;;;;;;;5911466;28;20194;-74
2023/11/06 07:17:17;;;;;;;2.17;1.10;;;;;;;;;;5911572;28;20494;-74
2023/11/06 07:20:09;;;;;;;1.40;0.88;;;;;;;;;;5911229;28;20056;-74
2023/11/06 07:23:00;;;;;;;1.50;1.00;;;;;;;;;;5911671;28;20049;-76
2023/11/06 07:25:51;;;;;;;1.48;1.13;;;;;;;;;;5911288;28;20037;-74
2023/11/06 07:28:42;;;;;;;0.20;0.20;;;;;;;;;;5910669;28;20052;-74
2023/11/06 07:31:33;;;;;;;0.75;0.75;;;;;;;;;;5911005;28;20059;-74
2023/11/06 07:34:24;;;;;;;2.00;1.10;;;;;;;;;;5911124;28;20560;-73
2023/11/06 07:37:15;;;;;;;0.40;0.40;;;;;;;;;;5910865;28;20048;-73
2023/11/06 07:40:13;;;;;;;0.20;0.20;;;;;;;;;;5910713;28;20052;-73
2023/11/06 07:43:04;;;;;;;0.50;0.47;;;;;;;;;;5909495;28;20071;-73
2023/11/06 07:45:55;;;;;;;0.70;0.40;;;;;;;;;;5911247;28;20052;-73
2023/11/06 07:48:47;;;;;;;0.70;0.65;;;;;;;;;;5910449;28;20052;-74
2023/11/06 07:51:39;;;;;;;0.43;0.43;;;;;;;;;;5910652;28;20131;-73
2023/11/06 07:54:30;;;;;;;0.98;0.65;;;;;;;;;;5910315;28;20497;-72
2023/11/06 07:57:21;;;;;;;1.38;0.50;;;;;;;;;;5910684;28;20056;-74
2023/11/06 08:00:13;;;;;;;1.13;0.88;;;;;;;;;;5910059;28;20464;-74
2023/11/06 08:03:04;;;;;;;1.08;0.90;;;;;;;;;;5910375;28;20056;-72
2023/11/06 08:05:54;;;;;;;2.75;0.88;;;;;;;;;;5910761;28;20131;-72
2023/11/06 08:08:45;;;;;;;0.30;0.30;;;;;;;;;;5910099;28;20133;-73
2023/11/06 08:11:36;;;;;;;1.60;0.88;;;;;;;;;;5910234;28;20045;-73
2023/11/06 08:14:27;;;;;;;0.10;0.10;;;;;;;;;;5910211;28;20044;-72
2023/11/06 08:17:18;;;;;;;2.40;1.13;;;;;;;;;;5909886;28;20122;-72
2023/11/06 08:20:11;;;;;;;0.75;0.65;;;;;;;;;;5909985;28;20056;-73
2023/11/06 08:23:02;;;;;;;0.90;0.68;;;;;;;;;;5908499;28;20052;-72
2023/11/06 08:25:53;;;;;;;0.15;0.15;;;;;;;;;;5910438;28;20044;-73
2023/11/06 08:28:44;;;;;;;4.45;0.82;;;;;;;;;;5909772;28;20067;-73
2023/11/06 08:31:35;;;;;;;0.52;0.35;;;;;;;;;;5909765;28;20045;-72
2023/11/06 08:34:26;;;;;;;0.55;0.55;;;;;;;;;;5909618;28;20409;-72
2023/11/06 08:37:18;;;;;;;2.95;2.53;;;;;;;;;;5909707;28;20067;-72
2023/11/06 08:40:17;;;;;;;1.15;0.70;;;;;;;;;;5909137;28;20512;-72
2023/11/06 08:43:08;;;;;;;5.57;0.88;;;;;;;;;;5909633;28;20052;-72
2023/11/06 08:46:01;;;;;;;0.38;0.38;;;;;;;;;;5909993;28;20131;-73
2023/11/06 08:48:53;;;;;;;2.80;1.48;;;;;;;;;;5909805;28;20466;-73
2023/11/06 08:51:44;;;;;;;0.60;0.60;;;;;;;;;;5909434;28;20090;-73
2023/11/06 08:54:35;;;;;;;1.00;0.85;;;;;;;;;;5909472;28;20051;-73
2023/11/06 08:57:26;;;;;;;2.70;1.30;;;;;;;;;;5909625;28;20055;-73
2023/11/06 09:00:18;;;;;;;0.82;0.60;;;;;;;;;;5909542;28;20052;-71
2023/11/06 09:03:09;;;;;;;0.98;0.95;;;;;;;;;;5909372;28;20518;-72
2023/11/06 09:06:00;;;;;;;1.73;1.00;;;;;;;;;;5909595;28;20080;-72
2023/11/06 09:08:51;;;;;;;1.08;1.00;;;;;;;;;;5909612;28;20162;-73
2023/11/06 09:11:42;;;;;;;0.43;0.40;;;;;;;;;;5909282;28;20045;-73
2023/11/06 09:14:34;;;;;;;1.23;0.50;;;;;;;;;;5909352;28;20060;-72
2023/11/06 09:17:25;;;;;;;0.40;0.40;;;;;;;;;;5909302;28;20064;-71
2023/11/06 09:20:16;;;;;;;1.75;0.80;;;;;;;;;;5909164;28;20464;-73
2023/11/06 09:23:07;;;;;;;1.65;0.32;;;;;;;;;;5909222;28;20076;-73
2023/11/06 09:25:58;;;;;;;0.28;0.28;;;;;;;;;;5909550;28;20394;-72
2023/11/06 09:28:49;;;;;;;4.90;0.77;;;;;;;;;;5907866;28;20048;-71
2023/11/06 09:31:40;;;;;;;0.40;0.40;;;;;;;;;;5908987;28;20041;-72
2023/11/06 09:34:31;;;;;;;0.93;0.68;;;;;;;;;;5909168;28;20048;-71
2023/11/06 09:37:21;;;;;;;0.55;0.25;;;;;;;;;;5909169;28;20792;-71
2023/11/06 09:40:21;;;;;;;0.28;0.28;;;;;;;;;;5909043;28;20517;-71
2023/11/06 09:43:12;;;;;;;2.85;0.52;;;;;;;;;;5908937;28;20044;-71
2023/11/06 09:46:05;;;;;;;1.13;0.70;;;;;;;;;;5909014;28;20072;-71
2023/11/06 09:49:16;;;;;;;1.15;1.00;;;;;;;;;;5909348;28;20109;-70
2023/11/06 09:52:07;;;;;;;1.73;0.40;;;;;;;;;;5911615;28;20044;-73
2023/11/06 09:55:02;;;;;;;3.30;2.72;;;;;;;;;;5913425;28;20121;-72
2023/11/06 09:57:52;;;;;;;2.75;1.67;;;;;;;;;;5913411;28;20049;-71
2023/11/06 10:00:43;;;;;;;1.08;0.82;;;;;;;;;;5913024;28;20491;-70
2023/11/06 10:03:41;;;;;;;0.88;0.57;;;;;;;;;;5913020;28;20501;-70
2023/11/06 10:06:35;;;;;;;0.63;0.43;;;;;;;;;;5913006;28;20078;-72
2023/11/06 10:09:25;;;;;;;0.65;0.65;;;;;;;;;;5912706;28;20151;-70
2023/11/06 10:12:18;;;;;;;0.60;0.60;;;;;;;;;;5912920;28;20391;-71
2023/11/06 10:15:11;;;;;;;1.23;0.70;;;;;;;;;;5912661;28;20563;-69
2023/11/06 10:18:13;;;;;;;0.30;0.13;;;;;;;;;;5912762;28;20055;-69
2023/11/06 10:21:05;;;;;;;0.68;0.55;;;;;;;;;;5912542;28;20048;-69
2023/11/06 10:24:01;;;;;;;3.83;1.27;;;;;;;;;;5913082;28;20052;-70
2023/11/06 10:26:52;;;;;;;10.52;1.45;;;;;;;;;;5912932;28;20418;-69
2023/11/06 10:30:04;;;;;;;0.88;0.57;;;;;;;;;;5912360;28;20044;-69
2023/11/06 10:32:59;;;;;;;2.38;0.93;;;;;;;;;;5912681;28;20433;-69
2023/11/06 10:35:50;;;;;;;0.65;0.50;;;;;;;;;;5912543;28;20036;-69
2023/11/06 10:38:41;;;;;;;3.95;1.10;;;;;;;;;;5912311;28;20418;-71
2023/11/06 10:41:34;;;;;;;1.25;0.80;;;;;;;;;;5912217;28;20048;-70
2023/11/06 10:44:25;;;;;;;4.78;1.08;;;;;;;;;;5910954;28;20051;-71
2023/11/06 10:47:22;;;;;;;0.28;0.20;;;;;;;;;;5912179;28;20044;-69
2023/11/06 10:50:20;;;;;;;0.98;0.75;;;;;;;;;;5910817;28;20690;-71
2023/11/06 10:53:12;;;;;;;2.03;0.88;;;;;;;;;;5912088;28;20395;-71
2023/11/06 10:56:05;;;;;;;1.20;0.75;;;;;;;;;;5910926;28;20048;-70
2023/11/06 10:58:59;;;;;;;1.17;1.00;;;;;;;;;;5911094;28;20103;-71
2023/11/06 11:01:54;;;;;;;4.32;0.95;;;;;;;;;;5911519;28;20410;-70
2023/11/06 11:04:51;;;;;;;0.30;0.30;;;;;;;;;;5911913;28;20581;-71
2023/11/06 11:07:43;;;;;;;3.63;0.88;;;;;;;;;;5911683;28;20052;-70
2023/11/06 11:10:34;;;;;;;0.55;0.40;;;;;;;;;;5911785;28;20067;-69
2023/11/06 11:13:25;;;;;;;0.30;0.30;;;;;;;;;;5911648;28;20055;-69
2023/11/06 11:16:41;;;;;;;0.95;0.47;;;;;;;;;;5911517;28;20049;-69
2023/11/06 11:19:33;;;;;;;0.73;0.47;;;;;;;;;;5911531;28;20414;-68
2023/11/06 11:22:24;;;;;;;0.40;0.40;;;;;;;;;;5910315;28;20540;-68
2023/11/06 11:25:57;;;;;;;2.63;0.93;;;;;;;;;;5910158;28;20056;-69
2023/11/06 11:28:58;;;;;;;0.77;0.38;;;;;;;;;;5911235;28;20055;-68
2023/11/06 11:31:49;;;;;;;1.80;1.17;;;;;;;;;;5910942;28;20098;-72
2023/11/06 11:34:40;;;;;;;0.70;0.47;;;;;;;;;;5911085;28;20048;-70
2023/11/06 11:37:35;;;;;;;0.30;0.30;;;;;;;;;;5911243;28;20041;-68
2023/11/06 11:40:46;;;;;;;10.30;0.75;;;;;;;;;;5910344;28;20056;-69
2023/11/06 11:43:37;;;;;;;0.93;0.32;;;;;;;;;;5910810;28;20082;-70
2023/11/06 11:46:47;;;;;;;1.85;0.50;;;;;;;;;;5910816;28;20658;-67
2023/11/06 11:49:49;;;;;;;0.40;0.40;;;;;;;;;;5910664;28;20048;-68
2023/11/06 11:52:41;;;;;;;0.60;0.60;;;;;;;;;;5910810;28;20418;-68
2023/11/06 11:55:37;;;;;;;2.55;0.85;;;;;;;;;;5910931;28;20383;-68
2023/11/06 11:58:29;;;;;;;0.17;0.17;;;;;;;;;;5910778;28;20044;-69
2023/11/06 12:01:20;;;;;;;1.17;0.60;;;;;;;;;;5908906;28;20063;-68
2023/11/06 12:04:24;;;;;;;1.15;1.05;;;;;;;;;;5909196;28;20048;-68
2023/11/06 12:07:16;;;;;;;1.13;0.50;;;;;;;;;;5910358;28;20517;-70
2023/11/06 12:10:07;;;;;;;3.90;0.55;;;;;;;;;;5910011;28;20057;-68
2023/11/06 12:13:18;;;;;;;1.00;0.73;;;;;;;;;;5910498;28;20044;-68
2023/11/06 12:16:09;;;;;;;1.73;0.93;;;;;;;;;;5910051;28;20045;-68
2023/11/06 12:18:59;;;;;;;0.65;0.60;;;;;;;;;;5910562;28;20051;-69
2023/11/06 12:22:00;;;;;;;3.95;1.50;;;;;;;;;;5910317;28;20068;-69
2023/11/06 12:24:52;;;;;;;2.08;1.63;;;;;;;;;;5910131;28;20052;-69
2023/11/06 12:27:43;;;;;;;1.30;0.95;;;;;;;;;;5910029;28;20048;-68
2023/11/06 12:30:36;;;;;;;5.30;1.55;;;;;;;;;;5909818;28;20123;-68
2023/11/06 12:33:33;;;;;;;2.05;0.77;;;;;;;;;;5909844;28;20049;-68
2023/11/06 12:36:28;;;;;;;1.33;1.17;;;;;;;;;;5909868;28;20048;-68
2023/11/06 12:39:36;;;;;;;0.47;0.38;;;;;;;;;;5908572;28;20210;-69
2023/11/06 12:42:28;;;;;;;2.30;0.90;;;;;;;;;;5909992;28;20052;-69
2023/11/06 12:45:30;;;;;;;2.30;0.30;;;;;;;;;;5908284;28;20241;-69
2023/11/06 12:48:26;;;;;;;0.47;0.25;;;;;;;;;;5909330;28;20063;-69
2023/11/06 12:51:19;;;;;;;0.93;0.60;;;;;;;;;;5909641;28;20178;-69
2023/11/06 12:54:12;;;;;;;2.17;0.60;;;;;;;;;;5909467;28;20052;-68
2023/11/06 12:57:07;;;;;;;2.28;1.05;;;;;;;;;;5909662;28;20044;-70
2023/11/06 12:59:59;;;;;;;1.40;0.50;;;;;;;;;;5909963;28;20045;-69
2023/11/06 13:02:51;;;;;;;11.82;5.38;;;;;;;;;;5909439;28;20066;-69
2023/11/06 13:05:42;;;;;;;1.67;0.85;;;;;;;;;;5909529;28;20047;-68
2023/11/06 13:08:35;;;;;;;5.30;2.78;;;;;;;;;;5909153;28;20055;-68
2023/11/06 13:11:26;;;;;;;6.25;1.25;;;;;;;;;;5909520;28;20087;-68
2023/11/06 13:14:28;;;;;;;2.40;1.02;;;;;;;;;;5909373;28;20051;-68
2023/11/06 13:17:19;;;;;;;10.95;5.93;;;;;;;;;;5909348;28;20063;-68
2023/11/06 13:20:32;;;;;;;11.05;6.72;;;;;;;;;;5907495;28;20048;-69
2023/11/06 13:23:24;;;;;;;11.20;4.13;;;;;;;;;;5899181;28;20053;-68
2023/11/06 13:26:16;;;;;;;9.10;5.97;;;;;;;;;;5888688;28;20418;-70
2023/11/06 13:29:11;;;;;;;2.58;1.50;;;;;;;;;;5890535;28;20083;-68
2023/11/06 13:32:03;;;;;;;9.00;2.08;;;;;;;;;;5890746;28;20191;-68
2023/11/06 13:34:54;;;;;;;2.28;0.93;;;;;;;;;;5890815;28;20057;-68
2023/11/06 13:37:46;;;;;;;1.35;1.00;;;;;;;;;;5889929;28;20056;-67
2023/11/06 13:40:46;;;;;;;1.05;0.55;;;;;;;;;;5890786;28;20049;-67
2023/11/06 13:43:38;;;;;;;0.10;0.10;;;;;;;;;;5889770;28;20427;-68
2023/11/06 13:46:29;;;;;;;1.10;0.75;;;;;;;;;;5889092;28;20056;-69
2023/11/06 13:49:21;;;;;;;13.27;2.58;;;;;;;;;;5890046;28;20056;-67
2023/11/06 13:52:24;;;;;;;13.02;4.25;;;;;;;;;;5889843;28;20057;-68
2023/11/06 13:55:19;;;;;;;4.18;3.17;;;;;;;;;;5889798;28;20063;-68
2023/11/06 13:58:13;;;;;;;1.67;1.02;;;;;;;;;;5890032;28;20044;-68
2023/11/06 14:01:07;;;;;;;12.05;5.70;;;;;;;;;;5888480;28;20051;-69
2023/11/06 14:03:59;;;;;;;5.28;3.00;;;;;;;;;;5888231;28;20068;-67
2023/11/06 14:06:54;;;;;;;2.10;1.38;;;;;;;;;;5888360;28;20045;-68
2023/11/06 14:09:51;;;;;;;2.78;1.52;;;;;;;;;;5889235;28;20056;-67
2023/11/06 14:12:42;;;;;;;0.70;0.60;;;;;;;;;;5889277;28;20116;-68
2023/11/06 14:15:33;;;;;;;9.40;1.52;;;;;;;;;;5888740;28;20486;-68
2023/11/06 14:18:26;;;;;;;4.20;2.67;;;;;;;;;;5888935;28;20048;-68
2023/11/06 14:21:17;;;;;;;1.75;1.35;;;;;;;;;;5888592;28;20056;-67
2023/11/06 14:24:10;;;;;;;1.75;1.40;;;;;;;;;;5895173;28;20478;-68
2023/11/06 14:27:02;;;;;;;5.70;1.08;;;;;;;;;;5904864;28;20356;-67
2023/11/06 14:29:53;;;;;;;4.65;1.77;;;;;;;;;;5888918;28;20391;-68
2023/11/06 14:32:44;;;;;;;1.52;0.93;;;;;;;;;;5888334;28;20417;-68
2023/11/06 14:35:38;;;;;;;1.05;0.70;;;;;;;;;;5887524;28;20118;-67
2023/11/06 14:38:29;;;;;;;1.83;1.20;;;;;;;;;;5887485;28;20462;-68
2023/11/06 14:41:21;;;;;;;3.40;1.95;;;;;;;;;;5888374;28;20056;-68
2023/11/06 14:44:14;;;;;;;0.65;0.50;;;;;;;;;;5888403;28;20049;-68
2023/11/06 14:47:05;;;;;;;1.20;0.90;;;;;;;;;;5888529;28;20060;-68
2023/11/06 14:49:56;;;;;;;2.13;0.90;;;;;;;;;;5889286;28;20053;-68
2023/11/06 14:52:50;;;;;;;8.20;1.85;;;;;;;;;;5887871;28;20051;-67
2023/11/06 14:55:43;;;;;;;2.95;1.67;;;;;;;;;;5888573;28;20132;-67
2023/11/06 14:58:34;;;;;;;2.28;1.67;;;;;;;;;;5889137;28;20049;-67
2023/11/06 15:01:25;;;;;;;2.05;1.02;;;;;;;;;;5889033;28;20052;-69
2023/11/06 15:04:15;;;;;;;7.18;2.00;;;;;;;;;;5888852;28;20155;-68
2023/11/06 15:07:06;;;;;;;14.88;6.65;;;;;;;;;;5888394;28;20048;-68
2023/11/06 15:09:57;;;;;;;18.23;10.20;;;;;;;;;;5889537;28;20075;-68
2023/11/06 15:12:50;;;;;;;5.43;2.75;;;;;;;;;;5889065;28;20052;-67
2023/11/06 15:15:41;;;;;;;3.40;2.42;;;;;;;;;;5895611;28;20041;-67
2023/11/06 15:18:31;;;;;;;7.95;3.67;;;;;;;;;;5886852;28;20049;-67
2023/11/06 15:21:22;;;;;;;3.47;1.75;;;;;;;;;;5887652;28;20072;-68
2023/11/06 15:24:13;;;;;;;5.85;3.40;;;;;;;;;;5888080;28;20051;-68
2023/11/06 15:27:05;;;;;;;3.80;2.65;;;;;;;;;;5887781;28;20135;-68
2023/11/06 15:29:56;;;;;;;8.45;2.88;;;;;;;;;;5884852;28;20068;-67
2023/11/06 15:32:48;;;;;;;4.90;3.35;;;;;;;;;;5886911;28;20152;-67
2023/11/06 15:35:39;;;;;;;10.88;4.97;;;;;;;;;;5887783;28;20045;-68
2023/11/06 15:38:29;;;;;;;5.30;2.55;;;;;;;;;;5887304;28;20047;-67
2023/11/06 15:41:20;;;;;;;11.48;6.45;;;;;;;;;;5886989;28;20051;-67
2023/11/06 15:44:11;;;;;;;6.30;3.85;;;;;;;;;;5887213;28;20048;-68
2023/11/06 15:47:02;;;;;;;8.35;2.85;;;;;;;;;;5887326;28;20052;-67
2023/11/06 15:49:55;;;;;;;3.00;2.25;;;;;;;;;;5887797;28;20048;-67
2023/11/06 15:52:46;;;;;;;1.70;1.38;;;;;;;;;;5886538;28;20045;-67
2023/11/06 15:55:43;;;;;;;3.38;1.58;;;;;;;;;;5887478;28;20199;-67
2023/11/06 15:58:34;;;;;;;3.08;2.30;;;;;;;;;;5887007;28;20517;-67
2023/11/06 16:01:29;;;;;;;4.00;2.58;;;;;;;;;;5886491;28;20067;-67
2023/11/06 16:04:20;;;;;;;5.03;2.38;;;;;;;;;;5869669;28;20052;-67
2023/11/06 16:07:15;;;;;;;6.15;3.25;;;;;;;;;;5886199;28;20110;-67
2023/11/06 16:10:07;;;;;;;4.47;3.08;;;;;;;;;;5887033;28;20053;-68
2023/11/06 16:13:01;;;;;;;13.50;5.25;;;;;;;;;;5890612;28;20049;-67
2023/11/06 16:15:53;;;;;;;6.68;4.07;;;;;;;;;;5887235;28;20060;-67
2023/11/06 16:18:44;;;;;;;2.00;1.80;;;;;;;;;;5885350;28;20418;-68
2023/11/06 16:21:38;;;;;;;3.85;2.78;;;;;;;;;;5886167;28;20103;-67
2023/11/06 16:24:29;;;;;;;2.22;1.77;;;;;;;;;;5886715;28;20525;-68
2023/11/06 16:27:21;;;;;;;7.75;3.85;;;;;;;;;;5886428;28;20422;-67
2023/11/06 16:30:12;;;;;;;5.15;2.80;;;;;;;;;;5886521;28;20410;-68
2023/11/06 16:33:04;;;;;;;1.45;1.35;;;;;;;;;;5902270;28;20061;-68
2023/11/06 16:35:55;;;;;;;8.30;2.60;;;;;;;;;;5909141;28;20127;-68
2023/11/06 16:38:46;;;;;;;4.07;2.25;;;;;;;;;;5907484;28;20040;-67
2023/11/06 16:41:37;;;;;;;5.72;2.80;;;;;;;;;;5904517;28;20051;-67
2023/11/06 16:44:27;;;;;;;5.07;2.75;;;;;;;;;;5886027;28;20515;-67
2023/11/06 16:47:18;;;;;;;5.68;3.58;;;;;;;;;;5884681;28;20525;-67
2023/11/06 16:50:09;;;;;;;15.88;7.32;;;;;;;;;;5877161;28;20040;-68
2023/11/06 16:53:00;;;;;;;19.70;6.07;;;;;;;;;;5899677;28;20049;-67
2023/11/06 16:55:54;;;;;;;34.75;9.38;;;;;;;;;;5886653;28;20414;-67
2023/11/06 16:58:47;;;;;;;14.65;7.90;;;;;;;;;;5885738;28;20562;-67
2023/11/06 17:01:38;;;;;;;17.90;9.20;;;;;;;;;;5884997;28;20363;-68
2023/11/06 17:04:30;;;;;;;10.40;6.30;;;;;;;;;;5885843;28;20051;-67
2023/11/06 17:07:21;;;;;;;21.00;11.02;;;;;;;;;;5885341;28;20049;-67
2023/11/06 17:10:14;;;;;;;17.15;8.68;;;;;;;;;;5885773;28;20132;-67
2023/11/06 17:13:05;;;;;;;17.63;6.97;;;;;;;;;;5885149;28;20088;-68